createdAt,value
2023-05-23T00:00:33.447Z,88.41
2023-05-23T00:03:00.795Z,88.89
2023-05-23T00:05:27.338Z,88.92
2023-05-23T00:07:53.691Z,89.50
2023-05-23T00:10:20.150Z,89.73
2023-05-23T00:12:48.366Z,90.16
2023-05-23T00:15:14.874Z,90.26
2023-05-23T00:17:41.736Z,90.37
2023-05-23T00:20:12.056Z,90.31
2023-05-23T00:26:24.324Z,90.64
2023-05-23T00:28:50.861Z,90.76
2023-05-23T00:31:17.780Z,91.00
2023-05-23T00:33:44.317Z,90.68
2023-05-23T00:36:10.815Z,90.94
2023-05-23T00:38:37.232Z,90.85
2023-05-23T00:41:41.215Z,91.21
2023-05-23T00:44:16.526Z,91.39
2023-05-23T00:46:46.093Z,91.44
2023-05-23T00:49:12.934Z,91.32
2023-05-23T00:51:39.356Z,91.42
2023-05-23T00:54:06.722Z,91.45
2023-05-23T00:56:33.345Z,91.54
2023-05-23T00:59:00.898Z,91.80
2023-05-23T01:01:27.408Z,90.96
2023-05-23T01:03:54.066Z,90.91
2023-05-23T01:06:20.603Z,90.83
2023-05-23T01:11:43.665Z,90.52
2023-05-23T01:14:15.991Z,90.32
2023-05-23T01:16:49.810Z,89.93
2023-05-23T01:19:58.474Z,89.91
2023-05-23T01:22:34.683Z,89.44
2023-05-23T01:25:10.848Z,89.35
2023-05-23T01:27:39.989Z,89.67
2023-05-23T01:30:10.452Z,89.75
2023-05-23T01:32:37.501Z,89.86
2023-05-23T01:35:05.568Z,89.84
2023-05-23T01:37:32.098Z,89.76
2023-05-23T01:39:58.631Z,90.28
2023-05-23T01:42:25.126Z,90.13
2023-05-23T01:44:52.479Z,90.10
2023-05-23T01:47:20.887Z,90.29
2023-05-23T01:49:48.181Z,90.58
2023-05-23T01:52:15.657Z,90.54
2023-05-23T01:54:43.889Z,90.06
2023-05-23T01:57:11.557Z,89.94
2023-05-23T01:59:38.895Z,89.41
2023-05-23T02:02:06.078Z,88.46
2023-05-23T02:19:41.035Z,86.38
2023-05-23T02:22:07.475Z,86.38
2023-05-23T02:24:33.966Z,86.28
2023-05-23T02:27:00.579Z,86.50
2023-05-23T02:29:27.051Z,86.08
2023-05-23T02:31:53.569Z,86.04
2023-05-23T02:34:19.987Z,86.18
2023-05-23T02:36:46.419Z,86.36
2023-05-23T02:39:13.182Z,85.97
2023-05-23T02:41:39.589Z,86.05
2023-05-23T02:44:06.209Z,86.03
2023-05-23T02:46:32.986Z,85.78
2023-05-23T02:48:59.528Z,86.06
2023-05-23T02:51:26.271Z,85.98
2023-05-23T02:53:52.618Z,86.36
2023-05-23T02:56:19.130Z,86.34
2023-05-23T02:58:45.516Z,86.29
2023-05-23T03:01:12.162Z,86.48
2023-05-23T03:03:38.688Z,86.60
2023-05-23T03:06:06.236Z,86.21
2023-05-23T03:08:32.765Z,86.66
2023-05-23T03:10:59.269Z,86.92
2023-05-23T03:13:25.612Z,87.55
2023-05-23T03:15:52.135Z,87.56
2023-05-23T03:18:18.523Z,87.35
2023-05-23T03:20:45.099Z,87.84
2023-05-23T03:23:11.571Z,87.27
2023-05-23T03:25:38.033Z,87.67
2023-05-23T03:28:04.662Z,87.35
2023-05-23T03:30:31.049Z,87.51
2023-05-23T03:32:57.438Z,87.92
2023-05-23T03:35:23.915Z,87.96
2023-05-23T03:37:50.464Z,88.15
2023-05-23T03:40:16.847Z,88.39
2023-05-23T03:42:43.215Z,87.98
2023-05-23T03:45:09.872Z,88.26
2023-05-23T03:47:36.398Z,88.63
2023-05-23T03:50:02.889Z,89.18
2023-05-23T03:52:29.332Z,89.66
2023-05-23T03:54:55.769Z,90.43
2023-05-23T03:57:22.753Z,90.88
2023-05-23T03:59:49.377Z,91.35
2023-05-23T04:02:16.041Z,91.73
2023-05-23T04:04:42.429Z,92.24
2023-05-23T04:07:09.991Z,92.65
2023-05-23T04:09:36.458Z,92.87
2023-05-23T04:12:02.887Z,92.91
2023-05-23T04:14:29.297Z,93.22
2023-05-23T04:16:55.681Z,92.80
2023-05-23T04:19:24.973Z,92.60
2023-05-23T04:21:51.454Z,92.55
2023-05-23T04:24:17.959Z,92.53
2023-05-23T04:26:44.335Z,92.33
2023-05-23T04:29:12.131Z,92.32
2023-05-23T04:31:38.886Z,92.20
2023-05-23T04:34:05.359Z,91.93
2023-05-23T04:36:31.712Z,91.85
2023-05-23T04:38:58.275Z,91.49
2023-05-23T04:41:24.679Z,91.52
2023-05-23T04:43:54.269Z,91.69
2023-05-23T04:46:26.444Z,91.58
2023-05-23T04:48:54.805Z,91.52
2023-05-23T04:51:22.051Z,91.56
2023-05-23T04:53:50.390Z,91.63
2023-05-23T04:56:22.836Z,92.01
2023-05-23T04:58:49.295Z,92.73
2023-05-23T05:01:15.881Z,92.61
2023-05-23T05:03:42.459Z,93.00
2023-05-23T05:06:08.930Z,93.86
2023-05-23T05:08:36.248Z,94.70
2023-05-23T05:11:02.938Z,94.92
2023-05-23T05:13:29.315Z,96.01
2023-05-23T05:15:55.888Z,96.13
2023-05-23T05:18:22.313Z,95.91
2023-05-23T05:20:48.814Z,96.53
2023-05-23T05:23:15.219Z,96.60
2023-05-23T05:25:41.620Z,96.96
2023-05-23T05:28:08.184Z,97.16
2023-05-23T05:30:38.815Z,97.31
2023-05-23T05:33:06.093Z,96.93
2023-05-23T05:35:33.409Z,97.29
2023-05-23T05:38:00.572Z,96.91
2023-05-23T05:40:27.005Z,97.00
2023-05-23T05:42:53.555Z,96.34
2023-05-23T05:45:20.038Z,96.09
2023-05-23T05:47:46.881Z,96.54
2023-05-23T05:50:13.326Z,96.29
2023-05-23T05:52:42.452Z,96.28
2023-05-23T05:55:13.702Z,95.70
2023-05-23T05:57:41.102Z,95.68
2023-05-23T06:00:13.334Z,95.56
2023-05-23T06:02:39.874Z,95.83
2023-05-23T06:05:07.913Z,95.84
2023-05-23T06:07:36.036Z,95.68
2023-05-23T06:10:03.690Z,95.57
2023-05-23T06:12:30.066Z,96.02
2023-05-23T06:14:56.809Z,95.95
2023-05-23T06:17:23.255Z,96.27
2023-05-23T06:19:49.726Z,96.29
2023-05-23T06:22:16.355Z,96.53
2023-05-23T06:24:42.821Z,96.41
2023-05-23T06:27:09.216Z,96.57
2023-05-23T06:29:38.715Z,96.39
2023-05-23T06:32:06.056Z,96.66
2023-05-23T06:34:32.603Z,96.79
2023-05-23T06:36:59.165Z,96.69
2023-05-23T06:39:25.592Z,96.38
2023-05-23T06:41:52.054Z,96.44
2023-05-23T06:44:18.587Z,96.46
2023-05-23T06:46:48.278Z,96.56
2023-05-23T06:49:15.572Z,96.77
2023-05-23T06:51:42.100Z,96.73
2023-05-23T06:54:08.656Z,96.65
2023-05-23T06:56:35.224Z,96.48
2023-05-23T06:59:01.731Z,96.54
2023-05-23T07:01:28.295Z,96.91
2023-05-23T07:03:54.915Z,96.53
2023-05-23T07:06:21.447Z,96.09
2023-05-23T07:08:47.902Z,95.71
2023-05-23T07:11:14.597Z,95.76
2023-05-23T07:13:41.038Z,95.51
2023-05-23T07:16:07.496Z,95.60
2023-05-23T07:18:36.060Z,95.44
2023-05-23T07:21:04.144Z,95.21
2023-05-23T07:23:36.574Z,94.48
2023-05-23T07:26:03.521Z,94.38
2023-05-23T07:28:30.204Z,94.42
2023-05-23T07:30:59.265Z,93.98
2023-05-23T07:33:25.734Z,93.86
2023-05-23T07:35:52.243Z,93.97
2023-05-23T07:38:18.741Z,93.68
2023-05-23T07:40:50.166Z,93.56
2023-05-23T07:43:22.518Z,93.10
2023-05-23T07:45:48.923Z,93.30
2023-05-23T07:48:15.357Z,93.34
2023-05-23T07:50:41.984Z,92.65
2023-05-23T07:53:08.585Z,92.18
2023-05-23T07:55:34.998Z,92.13
2023-05-23T07:58:01.527Z,92.27
2023-05-23T08:00:28.152Z,91.74
2023-05-23T08:02:54.610Z,91.33
2023-05-23T08:05:22.858Z,89.90
2023-05-23T08:07:49.489Z,89.68
2023-05-23T08:10:15.927Z,89.99
2023-05-23T08:12:42.451Z,89.49
2023-05-23T08:15:09.838Z,89.58
2023-05-23T08:17:36.320Z,89.64
2023-05-23T08:20:05.116Z,89.98
2023-05-23T08:22:31.644Z,90.28
2023-05-23T08:24:58.258Z,90.31
2023-05-23T08:27:24.632Z,90.05
2023-05-23T08:29:50.996Z,89.67
2023-05-23T08:32:17.552Z,89.68
2023-05-23T08:34:44.186Z,90.05
2023-05-23T08:37:11.021Z,90.10
2023-05-23T08:39:37.502Z,89.99
2023-05-23T08:42:04.344Z,89.46
2023-05-23T08:44:30.772Z,89.62
2023-05-23T08:47:02.439Z,89.47
2023-05-23T08:49:28.961Z,89.21
2023-05-23T08:51:58.489Z,88.98
2023-05-23T08:54:25.441Z,88.95
2023-05-23T08:56:52.312Z,88.66
2023-05-23T08:59:19.950Z,88.80
2023-05-23T09:01:48.392Z,88.80
2023-05-23T09:04:15.258Z,89.29
2023-05-23T09:06:41.723Z,89.32
2023-05-23T09:09:08.733Z,90.04
2023-05-23T09:11:36.451Z,89.90
2023-05-23T09:14:05.087Z,90.42
2023-05-23T09:16:34.912Z,90.45
2023-05-23T09:19:11.276Z,89.06
2023-05-23T09:21:37.817Z,88.83
2023-05-23T09:24:05.716Z,88.11
2023-05-23T09:26:32.227Z,87.64
2023-05-23T09:28:59.627Z,87.23
2023-05-23T09:31:31.976Z,87.44
2023-05-23T09:33:59.976Z,87.56
2023-05-23T09:36:32.530Z,87.13
2023-05-23T09:39:03.647Z,87.13
2023-05-23T09:41:33.148Z,87.60
2023-05-23T09:44:01.311Z,87.27
2023-05-23T09:46:30.790Z,87.32
2023-05-23T09:48:57.240Z,86.97
2023-05-23T09:51:24.556Z,87.28
2023-05-23T09:53:51.183Z,87.41
2023-05-23T09:56:18.472Z,87.70
2023-05-23T09:58:47.700Z,87.97
2023-05-23T10:01:15.062Z,87.88
2023-05-23T10:03:51.670Z,87.99
2023-05-23T10:06:56.961Z,88.59
2023-05-23T10:09:26.970Z,88.53
2023-05-23T10:12:39.485Z,88.46
2023-05-23T10:15:08.950Z,88.42
2023-05-23T10:18:02.731Z,88.03
2023-05-23T10:20:33.308Z,88.47
2023-05-23T10:23:01.434Z,88.30
2023-05-23T10:25:29.178Z,88.12
2023-05-23T10:28:02.422Z,87.44
2023-05-23T10:30:30.954Z,87.58
2023-05-23T10:32:58.996Z,86.50
2023-05-23T10:35:32.703Z,85.98
2023-05-23T10:38:17.786Z,86.17
2023-05-23T10:41:06.512Z,85.96
2023-05-23T10:44:10.053Z,85.43
2023-05-23T10:46:54.891Z,85.01
2023-05-23T10:49:22.729Z,83.82
2023-05-23T10:51:52.162Z,83.52
2023-05-23T10:54:20.465Z,82.80
2023-05-23T10:56:47.036Z,80.81
2023-05-23T10:59:24.245Z,80.03
2023-05-23T11:01:52.486Z,80.28
2023-05-23T11:04:26.830Z,80.68
2023-05-23T11:06:55.298Z,80.83
2023-05-23T11:09:22.343Z,81.53
2023-05-23T11:11:49.468Z,80.88
2023-05-23T11:14:16.172Z,81.49
2023-05-23T11:16:46.429Z,81.19
2023-05-23T11:19:19.130Z,81.08
2023-05-23T11:21:49.109Z,81.02
2023-05-23T11:24:16.339Z,81.42
2023-05-23T11:26:54.075Z,81.09
2023-05-23T11:29:20.663Z,80.71
2023-05-23T11:31:47.167Z,80.84
2023-05-23T11:34:14.023Z,80.21
2023-05-23T11:36:40.900Z,80.79
2023-05-23T11:39:07.968Z,80.91
2023-05-23T11:41:35.680Z,81.51
2023-05-23T11:44:02.506Z,81.74
2023-05-23T11:46:29.186Z,82.34
2023-05-23T11:48:56.016Z,83.10
2023-05-23T11:51:22.566Z,83.08
2023-05-23T11:53:49.223Z,82.86
2023-05-23T11:56:16.356Z,81.49
2023-05-23T11:58:43.386Z,81.42
2023-05-23T12:01:12.129Z,80.35
2023-05-23T12:03:47.383Z,80.50
2023-05-23T12:06:21.954Z,79.71
2023-05-23T12:08:51.344Z,78.33
2023-05-23T12:11:18.961Z,77.23
2023-05-23T12:13:45.716Z,76.50
2023-05-23T12:16:15.372Z,76.47
2023-05-23T12:18:42.641Z,76.14
2023-05-23T12:21:09.415Z,75.05
2023-05-23T12:23:36.794Z,75.16
2023-05-23T12:26:07.422Z,74.79
2023-05-23T12:28:36.352Z,75.54
2023-05-23T12:31:16.051Z,75.65
2023-05-23T12:33:47.716Z,75.48
2023-05-23T12:36:15.854Z,74.95
2023-05-23T12:38:45.340Z,74.93
2023-05-23T12:41:21.880Z,75.23
2023-05-23T12:43:53.697Z,74.51
2023-05-23T12:46:24.823Z,74.53
2023-05-23T12:48:51.385Z,74.58
2023-05-23T12:51:17.929Z,73.74
2023-05-23T12:53:44.996Z,73.21
2023-05-23T12:56:11.738Z,73.68
2023-05-23T12:58:38.467Z,72.91
2023-05-23T13:01:05.265Z,73.52
2023-05-23T13:03:32.086Z,73.97
2023-05-23T13:05:59.495Z,72.94
2023-05-23T13:08:27.532Z,71.83
2023-05-23T13:10:54.339Z,72.06
2023-05-23T13:13:21.010Z,70.85
2023-05-23T13:15:48.959Z,70.13
2023-05-23T13:18:17.426Z,70.01
2023-05-23T13:20:43.976Z,70.15
2023-05-23T13:23:10.402Z,70.11
2023-05-23T13:25:36.841Z,69.87
2023-05-23T13:28:03.284Z,69.61
2023-05-23T13:30:29.897Z,69.78
2023-05-23T13:32:56.432Z,70.19
2023-05-23T13:35:22.916Z,70.41
2023-05-23T13:37:49.453Z,69.18
2023-05-23T13:40:21.020Z,69.61
2023-05-23T13:42:51.496Z,69.12
2023-05-23T13:45:19.017Z,68.72
2023-05-23T13:47:46.580Z,67.81
2023-05-23T13:50:13.205Z,66.81
2023-05-23T13:52:42.917Z,66.78
2023-05-23T13:55:11.108Z,66.17
2023-05-23T13:57:37.653Z,65.03
2023-05-23T14:00:05.328Z,64.23
2023-05-23T14:02:34.767Z,65.47
2023-05-23T14:05:01.557Z,65.84
2023-05-23T14:07:28.214Z,65.97
2023-05-23T14:09:54.686Z,65.78
2023-05-23T14:12:21.222Z,65.15
2023-05-23T14:14:47.585Z,64.90
2023-05-23T14:17:17.798Z,64.64
2023-05-23T14:19:44.578Z,62.94
2023-05-23T14:22:11.477Z,62.60
2023-05-23T14:24:37.986Z,62.79
2023-05-23T14:27:04.771Z,63.09
2023-05-23T14:29:31.688Z,62.18
2023-05-23T14:31:59.870Z,61.54
2023-05-23T14:34:26.705Z,60.80
2023-05-23T14:36:53.831Z,60.72
2023-05-23T14:39:20.296Z,60.98
2023-05-23T14:41:46.947Z,60.07
2023-05-23T14:44:13.739Z,59.75
2023-05-23T14:46:42.025Z,60.34
2023-05-23T14:49:08.670Z,60.85
2023-05-23T14:54:09.662Z,60.92
2023-05-23T14:56:37.653Z,59.96
2023-05-23T14:59:05.254Z,60.88
2023-05-23T15:01:32.045Z,59.55
2023-05-23T15:03:58.735Z,58.42
2023-05-23T15:06:25.131Z,59.13
2023-05-23T15:08:52.430Z,59.33
2023-05-23T15:11:19.036Z,58.02
2023-05-23T15:13:45.562Z,58.68
2023-05-23T15:16:12.637Z,58.19
2023-05-23T15:18:42.087Z,58.52
2023-05-23T15:21:08.976Z,58.19
2023-05-23T15:23:35.774Z,58.38
2023-05-23T15:26:02.244Z,56.84
2023-05-23T15:28:28.627Z,58.04
2023-05-23T15:30:57.023Z,58.49
2023-05-23T15:33:23.543Z,57.65
2023-05-23T15:35:50.078Z,58.66
2023-05-23T15:38:18.477Z,58.19
2023-05-23T15:40:48.794Z,57.90
2023-05-23T15:43:15.468Z,56.92
2023-05-23T15:45:42.416Z,57.26
2023-05-23T15:48:09.059Z,57.05
2023-05-23T15:50:35.573Z,56.70
2023-05-23T15:53:02.097Z,56.96
2023-05-23T15:55:28.662Z,56.95
2023-05-23T15:57:55.067Z,57.30
2023-05-23T16:00:22.149Z,57.64
2023-05-23T16:02:48.713Z,57.30
2023-05-23T16:05:15.227Z,57.32
2023-05-23T16:07:41.654Z,57.21
2023-05-23T16:10:08.801Z,57.44
2023-05-23T16:12:35.412Z,57.23
2023-05-23T16:15:01.829Z,58.10
2023-05-23T16:17:28.327Z,58.38
2023-05-23T16:19:54.730Z,57.55
2023-05-23T16:22:21.153Z,56.35
2023-05-23T16:24:47.596Z,56.82
2023-05-23T16:27:14.212Z,55.65
2023-05-23T16:29:40.850Z,55.62
2023-05-23T16:32:07.815Z,55.10
2023-05-23T16:34:35.148Z,55.16
2023-05-23T16:37:01.582Z,55.53
2023-05-23T16:39:28.188Z,55.34
2023-05-23T16:41:54.673Z,55.22
2023-05-23T16:44:21.260Z,54.13
2023-05-23T16:46:47.853Z,54.06
2023-05-23T16:49:14.429Z,54.19
2023-05-23T16:51:40.799Z,55.33
2023-05-23T16:54:07.952Z,55.22
2023-05-23T16:56:34.506Z,55.30
2023-05-23T16:59:01.127Z,55.70
2023-05-23T17:01:29.340Z,54.98
2023-05-23T17:03:56.874Z,54.94
2023-05-23T17:06:23.504Z,55.17
2023-05-23T17:08:50.569Z,55.36
2023-05-23T17:11:17.199Z,55.72
2023-05-23T17:13:43.634Z,56.01
2023-05-23T17:16:10.504Z,55.95
2023-05-23T17:18:37.279Z,56.17
2023-05-23T17:21:03.709Z,56.32
2023-05-23T17:23:30.165Z,56.84
2023-05-23T17:25:56.702Z,57.27
2023-05-23T17:28:23.224Z,57.16
2023-05-23T17:30:51.586Z,56.90
2023-05-23T17:33:17.999Z,57.12
2023-05-23T17:35:44.560Z,56.59
2023-05-23T17:38:11.143Z,56.64
2023-05-23T17:40:37.674Z,56.82
2023-05-23T17:43:04.108Z,57.54
2023-05-23T17:45:31.533Z,57.72
2023-05-23T17:47:58.785Z,57.55
2023-05-23T17:50:25.335Z,58.32
2023-05-23T17:52:51.878Z,58.26
2023-05-23T17:55:18.305Z,57.96
2023-05-23T17:57:45.018Z,57.91
2023-05-23T18:00:12.082Z,57.94
2023-05-23T18:02:38.522Z,57.71
2023-05-23T18:05:06.909Z,57.74
2023-05-23T18:07:33.402Z,57.54
2023-05-23T18:09:59.992Z,57.96
2023-05-23T18:12:26.923Z,57.21
2023-05-23T18:14:53.446Z,57.06
2023-05-23T18:17:20.230Z,57.27
2023-05-23T18:19:46.715Z,57.01
2023-05-23T18:22:14.275Z,57.30
2023-05-23T18:24:41.712Z,57.47
2023-05-23T18:27:08.470Z,58.15
2023-05-23T18:29:35.463Z,57.86
2023-05-23T18:32:02.361Z,58.25
2023-05-23T18:34:29.413Z,58.47
2023-05-23T18:36:56.129Z,58.56
2023-05-23T18:39:22.910Z,59.49
2023-05-23T18:41:49.380Z,59.10
2023-05-23T18:44:17.469Z,59.09
2023-05-23T18:46:45.325Z,58.67
2023-05-23T18:49:11.756Z,59.16
2023-05-23T18:51:39.349Z,59.20
2023-05-23T18:54:05.864Z,59.49
2023-05-23T18:56:32.263Z,59.42
2023-05-23T18:58:58.669Z,59.56
2023-05-23T19:01:25.634Z,59.55
2023-05-23T19:03:52.531Z,60.06
2023-05-23T19:06:19.235Z,59.73
2023-05-23T19:08:45.994Z,59.84
2023-05-23T19:11:12.374Z,60.17
2023-05-23T19:13:38.874Z,60.31
2023-05-23T19:16:05.477Z,60.58
2023-05-23T19:18:32.008Z,60.68
2023-05-23T19:20:58.423Z,60.95
2023-05-23T19:23:25.162Z,61.07
2023-05-23T19:25:51.619Z,60.75
2023-05-23T19:28:18.076Z,60.90
2023-05-23T19:30:44.759Z,60.46
2023-05-23T19:33:11.496Z,61.19
2023-05-23T19:35:38.415Z,61.47
2023-05-23T19:38:04.944Z,60.73
2023-05-23T19:40:31.300Z,61.02
2023-05-23T19:42:57.735Z,60.72
2023-05-23T19:45:24.289Z,60.79
2023-05-23T19:47:50.694Z,61.11
2023-05-23T19:50:17.111Z,60.54
2023-05-23T19:52:43.581Z,60.59
2023-05-23T19:55:10.044Z,61.26
2023-05-23T19:57:37.037Z,61.28
2023-05-23T20:00:05.614Z,61.23
2023-05-23T20:02:32.040Z,61.37
2023-05-23T20:04:58.465Z,61.50
2023-05-23T20:07:24.853Z,61.16
2023-05-23T20:09:51.318Z,61.35
2023-05-23T20:12:17.757Z,61.50
2023-05-23T20:14:44.215Z,61.84
2023-05-23T20:17:10.748Z,62.05
2023-05-23T20:19:37.275Z,62.01
2023-05-23T20:22:03.851Z,62.60
2023-05-23T20:24:31.787Z,62.63
2023-05-23T20:26:58.427Z,62.48
2023-05-23T20:29:24.873Z,62.63
2023-05-23T20:31:51.669Z,62.90
2023-05-23T20:34:18.114Z,63.01
2023-05-23T20:36:44.558Z,63.41
2023-05-23T20:39:11.040Z,63.19
2023-05-23T20:41:37.483Z,63.01
2023-05-23T20:44:03.877Z,63.23
2023-05-23T20:46:30.655Z,63.10
2023-05-23T20:48:57.545Z,63.65
2023-05-23T20:51:24.063Z,63.77
2023-05-23T20:53:51.760Z,63.61
2023-05-23T20:56:18.187Z,63.76
2023-05-23T20:58:45.954Z,64.19
2023-05-23T21:01:12.466Z,63.87
2023-05-23T21:03:38.899Z,64.17
2023-05-23T21:06:05.672Z,64.17
2023-05-23T21:08:34.547Z,63.77
2023-05-23T21:11:01.301Z,63.91
2023-05-23T21:13:27.978Z,63.74
2023-05-23T21:15:54.344Z,63.92
2023-05-23T21:18:22.308Z,64.24
2023-05-23T21:20:50.576Z,64.14
2023-05-23T21:23:17.112Z,64.37
2023-05-23T21:25:43.528Z,64.29
2023-05-23T21:28:09.968Z,64.74
2023-05-23T21:30:36.754Z,64.52
2023-05-23T21:33:03.350Z,64.35
2023-05-23T21:35:29.804Z,64.88
2023-05-23T21:37:56.353Z,65.19
2023-05-23T21:40:25.194Z,65.07
2023-05-23T21:42:51.629Z,64.92
2023-05-23T21:45:18.011Z,64.74
2023-05-23T21:47:44.494Z,65.33
2023-05-23T21:50:11.309Z,65.95
2023-05-23T21:52:37.726Z,65.54
2023-05-23T21:55:04.536Z,65.90
2023-05-23T21:57:31.060Z,66.31
2023-05-23T21:59:57.420Z,65.62
2023-05-23T22:02:23.919Z,65.27
2023-05-23T22:04:50.301Z,65.30
2023-05-23T22:07:16.718Z,65.14
2023-05-23T22:09:43.167Z,66.11
2023-05-23T22:12:09.645Z,65.69
2023-05-23T22:14:36.126Z,65.91
2023-05-23T22:17:03.793Z,65.86
2023-05-23T22:19:30.387Z,66.24
2023-05-23T22:21:56.872Z,66.23
2023-05-23T22:24:23.581Z,66.24
2023-05-23T22:26:50.021Z,66.92
2023-05-23T22:29:16.386Z,67.06
2023-05-23T22:31:42.871Z,66.80
2023-05-23T22:34:09.451Z,67.27
2023-05-23T22:36:36.634Z,66.99
2023-05-23T22:39:05.178Z,67.53
2023-05-23T22:41:32.204Z,67.76
2023-05-23T22:43:58.633Z,67.49
2023-05-23T22:46:25.126Z,67.18
2023-05-23T22:48:52.522Z,67.31
2023-05-23T22:51:19.845Z,67.06
2023-05-23T22:53:46.268Z,67.27
2023-05-23T22:56:12.756Z,67.28
2023-05-23T22:58:39.282Z,67.48
2023-05-23T23:01:05.893Z,67.10
2023-05-23T23:03:32.393Z,67.34
2023-05-23T23:05:59.366Z,67.36
2023-05-23T23:08:25.915Z,67.57
2023-05-23T23:10:52.353Z,67.77
2023-05-23T23:13:18.907Z,68.07
2023-05-23T23:15:45.334Z,68.25
2023-05-23T23:18:13.694Z,68.21
2023-05-23T23:20:40.730Z,68.25
2023-05-23T23:23:07.595Z,68.72
2023-05-23T23:25:34.067Z,69.06
2023-05-23T23:28:00.919Z,69.63
2023-05-23T23:30:27.553Z,69.73
2023-05-23T23:32:54.032Z,70.18
2023-05-23T23:35:20.543Z,70.28
2023-05-23T23:37:47.116Z,70.11
2023-05-23T23:40:13.547Z,70.76
2023-05-23T23:42:40.414Z,70.10
2023-05-23T23:45:07.292Z,70.84
2023-05-23T23:47:33.842Z,71.06
2023-05-23T23:50:00.373Z,70.88
2023-05-23T23:52:28.139Z,71.26
2023-05-23T23:54:54.761Z,71.15
2023-05-23T23:57:21.205Z,71.00
2023-05-23T23:59:47.746Z,71.10
